createdAt,value
2022-09-03T00:01:44.109Z,55.45
2022-09-03T00:04:21.361Z,55.85
2022-09-03T00:06:56.114Z,56.01
2022-09-03T00:09:25.465Z,55.46
2022-09-03T00:11:54.218Z,55.77
2022-09-03T00:14:47.608Z,55.33
2022-09-03T00:17:16.515Z,55.40
2022-09-03T00:19:59.060Z,55.39
2022-09-03T00:22:33.580Z,55.77
2022-09-03T00:25:03.149Z,55.92
2022-09-03T00:27:30.567Z,55.65
2022-09-03T00:29:58.762Z,55.16
2022-09-03T00:32:47.425Z,55.58
2022-09-03T00:35:23.078Z,55.82
2022-09-03T00:37:53.607Z,56.18
2022-09-03T00:40:33.132Z,55.51
2022-09-03T00:43:19.112Z,55.72
2022-09-03T00:45:57.588Z,55.77
2022-09-03T00:48:28.009Z,57.08
2022-09-03T00:50:56.042Z,56.18
2022-09-03T00:53:26.917Z,56.53
2022-09-03T00:56:16.125Z,56.61
2022-09-03T00:59:10.186Z,56.36
2022-09-03T01:01:55.980Z,56.01
2022-09-03T01:04:35.630Z,55.99
2022-09-03T01:07:06.613Z,56.12
2022-09-03T01:09:54.545Z,56.12
2022-09-03T01:12:41.101Z,56.02
2022-09-03T01:15:10.538Z,54.99
2022-09-03T01:17:43.875Z,55.13
2022-09-03T01:20:22.928Z,55.25
2022-09-03T01:23:05.558Z,56.11
2022-09-03T01:25:45.012Z,56.71
2022-09-03T01:28:33.433Z,56.62
2022-09-03T01:31:11.159Z,57.16
2022-09-03T01:33:44.761Z,56.61
2022-09-03T01:36:16.853Z,56.32
2022-09-03T01:38:47.438Z,56.45
2022-09-03T01:41:45.798Z,56.29
2022-09-03T01:44:13.064Z,56.00
2022-09-03T01:46:40.975Z,56.45
2022-09-03T01:49:10.039Z,57.15
2022-09-03T01:51:37.211Z,56.53
2022-09-03T01:54:07.686Z,56.61
2022-09-03T01:56:38.117Z,56.48
2022-09-03T01:59:11.878Z,56.19
2022-09-03T02:01:44.247Z,56.58
2022-09-03T02:04:20.601Z,56.45
2022-09-03T02:06:48.965Z,56.22
2022-09-03T02:09:19.590Z,55.54
2022-09-03T02:11:52.262Z,55.60
2022-09-03T02:14:19.484Z,55.77
2022-09-03T02:16:46.948Z,56.00
2022-09-03T02:19:14.784Z,55.70
2022-09-03T02:21:46.857Z,57.47
2022-09-03T02:24:14.083Z,56.93
2022-09-03T02:26:41.751Z,56.03
2022-09-03T02:29:08.937Z,56.80
2022-09-03T02:31:36.435Z,56.90
2022-09-03T02:34:03.856Z,56.69
2022-09-03T02:36:32.505Z,56.75
2022-09-03T02:39:00.635Z,56.82
2022-09-03T02:41:28.116Z,56.15
2022-09-03T02:43:57.486Z,56.91
2022-09-03T02:46:27.703Z,56.73
2022-09-03T02:48:55.206Z,56.05
2022-09-03T02:51:22.501Z,55.92
2022-09-03T02:53:50.883Z,57.59
2022-09-03T02:56:18.734Z,56.43
2022-09-03T02:58:45.920Z,56.52
2022-09-03T03:01:19.777Z,56.67
2022-09-03T03:03:52.158Z,56.53
2022-09-03T03:06:22.260Z,56.84
2022-09-03T03:08:49.964Z,56.72
2022-09-03T03:11:18.366Z,56.27
2022-09-03T03:13:46.411Z,56.13
2022-09-03T03:16:14.043Z,56.08
2022-09-03T03:18:41.792Z,56.95
2022-09-03T03:21:10.151Z,57.03
2022-09-03T03:23:37.581Z,56.85
2022-09-03T03:26:06.873Z,56.46
2022-09-03T03:28:34.370Z,57.17
2022-09-03T03:31:05.966Z,57.78
2022-09-03T03:33:33.371Z,56.85
2022-09-03T03:36:04.104Z,56.41
2022-09-03T03:38:32.050Z,56.77
2022-09-03T03:40:59.360Z,57.22
2022-09-03T03:43:26.506Z,57.14
2022-09-03T03:45:58.031Z,57.96
2022-09-03T03:48:25.645Z,57.54
2022-09-03T03:50:53.250Z,56.88
2022-09-03T03:53:20.744Z,56.86
2022-09-03T03:55:57.406Z,57.66
2022-09-03T03:58:24.975Z,57.07
2022-09-03T04:00:52.382Z,57.19
2022-09-03T04:03:19.933Z,57.18
2022-09-03T04:05:56.739Z,56.99
2022-09-03T04:08:24.207Z,57.19
2022-09-03T04:10:51.604Z,57.67
2022-09-03T04:13:18.780Z,57.63
2022-09-03T04:15:46.682Z,57.86
2022-09-03T04:18:14.255Z,56.98
2022-09-03T04:20:41.446Z,58.32
2022-09-03T04:23:08.851Z,57.61
2022-09-03T04:25:36.746Z,57.35
2022-09-03T04:28:04.679Z,57.32
2022-09-03T04:30:32.986Z,58.08
2022-09-03T04:33:01.248Z,58.86
2022-09-03T04:35:30.233Z,57.87
2022-09-03T04:37:57.990Z,57.06
2022-09-03T04:40:25.170Z,57.97
2022-09-03T04:42:56.579Z,58.10
2022-09-03T04:45:24.017Z,58.09
2022-09-03T04:47:57.432Z,57.95
2022-09-03T04:50:28.057Z,56.79
2022-09-03T04:53:07.817Z,57.12
2022-09-03T04:55:36.322Z,56.67
2022-09-03T04:58:07.976Z,57.54
2022-09-03T05:00:38.737Z,58.02
2022-09-03T05:03:06.039Z,57.78
2022-09-03T05:05:37.458Z,57.80
2022-09-03T05:08:07.300Z,57.97
2022-09-03T05:10:38.580Z,57.41
2022-09-03T05:13:07.098Z,57.82
2022-09-03T05:15:35.348Z,58.53
2022-09-03T05:18:03.050Z,57.83
2022-09-03T05:20:31.150Z,57.23
2022-09-03T05:23:01.489Z,57.69
2022-09-03T05:25:29.010Z,58.15
2022-09-03T05:27:56.515Z,57.85
2022-09-03T05:30:24.172Z,57.46
2022-09-03T05:32:52.127Z,57.33
2022-09-03T05:35:24.095Z,56.86
2022-09-03T05:37:55.981Z,57.36
2022-09-03T05:40:23.800Z,57.59
2022-09-03T05:42:54.726Z,56.77
2022-09-03T05:45:23.335Z,58.63
2022-09-03T05:47:50.891Z,57.52
2022-09-03T05:50:18.614Z,57.24
2022-09-03T05:52:45.974Z,57.12
2022-09-03T05:55:13.754Z,57.53
2022-09-03T05:57:43.496Z,57.88
2022-09-03T06:00:11.014Z,57.28
2022-09-03T06:02:39.361Z,57.07
2022-09-03T06:05:08.246Z,57.50
2022-09-03T06:07:35.793Z,57.60
2022-09-03T06:10:04.445Z,57.72
2022-09-03T06:12:32.073Z,57.81
2022-09-03T06:14:59.376Z,57.37
2022-09-03T06:17:26.767Z,55.70
2022-09-03T06:19:54.438Z,54.54
2022-09-03T06:22:24.919Z,54.75
2022-09-03T06:24:54.537Z,54.59
2022-09-03T06:27:21.758Z,54.18
2022-09-03T06:29:49.186Z,53.62
2022-09-03T06:32:16.752Z,53.41
2022-09-03T06:34:44.119Z,52.88
2022-09-03T06:37:11.420Z,52.12
2022-09-03T06:39:38.886Z,52.57
2022-09-03T06:42:06.309Z,52.24
2022-09-03T06:44:33.783Z,51.61
2022-09-03T06:47:01.582Z,50.94
2022-09-03T06:49:28.827Z,51.79
2022-09-03T06:51:56.037Z,53.26
2022-09-03T06:54:25.204Z,51.40
2022-09-03T06:56:52.513Z,51.57
2022-09-03T06:59:19.705Z,48.56
2022-09-03T07:01:47.771Z,48.25
2022-09-03T07:04:20.102Z,47.56
2022-09-03T07:06:47.923Z,48.28
2022-09-03T07:09:15.936Z,46.37
2022-09-03T07:11:48.039Z,46.04
2022-09-03T07:14:19.591Z,44.92
2022-09-03T07:16:47.358Z,43.47
2022-09-03T07:19:14.720Z,44.28
2022-09-03T07:21:48.112Z,44.65
2022-09-03T07:24:16.243Z,42.71
2022-09-03T07:26:48.707Z,41.03
2022-09-03T07:29:20.107Z,42.06
2022-09-03T07:31:51.340Z,41.66
2022-09-03T07:34:19.018Z,40.56
2022-09-03T07:36:51.281Z,40.96
2022-09-03T07:39:19.219Z,39.27
2022-09-03T07:41:46.741Z,39.81
2022-09-03T07:44:15.348Z,40.72
2022-09-03T07:46:43.731Z,38.95
2022-09-03T07:49:11.412Z,39.12
2022-09-03T07:51:38.909Z,38.45
2022-09-03T07:54:11.212Z,39.95
2022-09-03T07:56:39.564Z,39.54
2022-09-03T07:59:07.183Z,37.91
2022-09-03T08:01:34.964Z,37.42
2022-09-03T08:04:02.953Z,39.70
2022-09-03T08:06:30.354Z,39.34
2022-09-03T08:09:03.706Z,38.33
2022-09-03T08:11:32.836Z,37.88
2022-09-03T08:14:01.383Z,36.63
2022-09-03T08:16:30.656Z,37.81
2022-09-03T08:18:58.248Z,35.39
2022-09-03T08:21:26.245Z,38.10
2022-09-03T08:23:54.814Z,37.54
2022-09-03T08:26:22.348Z,38.38
2022-09-03T08:28:49.683Z,37.74
2022-09-03T08:31:19.116Z,36.20
2022-09-03T08:33:47.722Z,38.34
2022-09-03T08:36:17.929Z,37.33
2022-09-03T08:38:46.470Z,39.40
2022-09-03T08:41:18.453Z,37.48
2022-09-03T08:43:45.534Z,36.77
2022-09-03T08:46:12.735Z,37.14
2022-09-03T08:48:40.213Z,37.08
2022-09-03T08:51:14.500Z,35.47
2022-09-03T08:53:45.342Z,36.98
2022-09-03T08:56:13.942Z,37.00
2022-09-03T08:58:44.865Z,36.05
2022-09-03T09:01:18.830Z,36.92
2022-09-03T09:03:46.284Z,38.06
2022-09-03T09:06:32.396Z,37.43
2022-09-03T09:09:08.845Z,35.01
2022-09-03T09:11:50.955Z,36.37
2022-09-03T09:14:40.309Z,38.76
2022-09-03T09:17:16.862Z,34.09
2022-09-03T09:20:08.209Z,34.90
2022-09-03T09:22:38.759Z,35.15
2022-09-03T09:25:09.881Z,37.13
2022-09-03T09:27:37.200Z,35.75
2022-09-03T09:30:04.841Z,35.70
2022-09-03T09:32:34.996Z,32.86
2022-09-03T09:35:02.567Z,34.10
2022-09-03T09:37:30.335Z,34.37
2022-09-03T09:39:58.736Z,34.55
2022-09-03T09:42:26.467Z,35.55
2022-09-03T09:44:53.906Z,37.75
2022-09-03T09:47:23.112Z,36.14
2022-09-03T09:49:52.177Z,36.53
2022-09-03T09:52:19.604Z,33.18
2022-09-03T09:54:47.458Z,33.46
2022-09-03T09:57:18.312Z,35.25
2022-09-03T09:59:49.932Z,34.67
2022-09-03T10:02:22.477Z,35.68
2022-09-03T10:04:50.161Z,35.93
2022-09-03T10:07:26.903Z,34.66
2022-09-03T10:10:01.623Z,34.07
2022-09-03T10:12:30.816Z,34.02
2022-09-03T10:15:10.635Z,33.87
2022-09-03T10:17:46.416Z,33.95
2022-09-03T10:20:31.519Z,32.87
2022-09-03T10:23:02.729Z,34.34
2022-09-03T10:25:41.267Z,32.04
2022-09-03T10:28:10.089Z,34.13
2022-09-03T10:30:54.578Z,32.33
2022-09-03T10:33:23.409Z,31.90
2022-09-03T10:35:52.981Z,31.82
2022-09-03T10:38:23.500Z,31.14
2022-09-03T10:40:56.068Z,33.56
2022-09-03T10:43:35.691Z,33.30
2022-09-03T10:46:07.283Z,34.40
2022-09-03T10:48:53.643Z,33.84
2022-09-03T10:51:21.046Z,30.95
2022-09-03T10:54:03.920Z,31.95
2022-09-03T10:56:51.232Z,31.32
2022-09-03T10:59:29.375Z,30.79
2022-09-03T11:02:15.255Z,32.09
2022-09-03T11:04:45.393Z,31.09
2022-09-03T11:07:13.299Z,31.80
2022-09-03T11:09:48.539Z,30.55
2022-09-03T11:12:17.781Z,29.35
2022-09-03T11:14:54.671Z,31.47
2022-09-03T11:17:24.151Z,31.76
2022-09-03T11:19:53.198Z,31.05
2022-09-03T11:22:23.092Z,31.92
2022-09-03T11:24:52.906Z,30.84
2022-09-03T11:27:22.837Z,32.54
2022-09-03T11:29:51.676Z,31.70
2022-09-03T11:32:21.935Z,31.51
2022-09-03T11:34:50.330Z,31.09
2022-09-03T11:37:24.754Z,31.01
2022-09-03T11:39:56.901Z,29.99
2022-09-03T11:42:37.324Z,31.83
2022-09-03T11:45:21.445Z,29.05
2022-09-03T11:47:48.744Z,31.70
2022-09-03T11:50:21.138Z,30.29
2022-09-03T11:52:48.993Z,28.37
2022-09-03T11:55:38.254Z,28.88
2022-09-03T11:58:20.659Z,28.46
2022-09-03T12:00:53.256Z,31.27
2022-09-03T12:03:28.489Z,31.13
2022-09-03T12:06:05.436Z,31.91
2022-09-03T12:08:33.498Z,31.96
2022-09-03T12:11:14.030Z,29.92
2022-09-03T12:14:00.668Z,29.06
2022-09-03T12:16:40.406Z,29.56
2022-09-03T12:19:12.534Z,28.40
2022-09-03T12:21:41.075Z,31.92
2022-09-03T12:24:11.948Z,33.17
2022-09-03T12:26:40.848Z,30.51
2022-09-03T12:29:18.319Z,31.45
2022-09-03T12:31:47.379Z,28.86
2022-09-03T12:34:18.911Z,30.62
2022-09-03T12:36:47.719Z,29.15
2022-09-03T12:39:16.296Z,30.02
2022-09-03T12:42:01.280Z,30.54
2022-09-03T12:44:31.411Z,30.59
2022-09-03T12:49:50.789Z,32.80
2022-09-03T12:52:17.923Z,32.70
2022-09-03T12:54:51.297Z,29.96
2022-09-03T12:57:20.863Z,31.77
2022-09-03T12:59:48.129Z,32.27
2022-09-03T13:02:18.124Z,30.96
2022-09-03T13:04:45.731Z,31.05
2022-09-03T13:07:14.476Z,32.12
2022-09-03T13:09:41.867Z,32.62
2022-09-03T13:12:20.664Z,32.18
2022-09-03T13:14:48.546Z,31.25
2022-09-03T13:17:26.551Z,31.10
2022-09-03T13:19:59.634Z,30.23
2022-09-03T13:22:30.216Z,30.05
2022-09-03T13:25:09.876Z,31.26
2022-09-03T13:27:43.565Z,30.62
2022-09-03T13:30:17.424Z,30.55
2022-09-03T13:32:51.156Z,32.63
2022-09-03T13:35:39.801Z,32.17
2022-09-03T13:38:10.386Z,32.18
2022-09-03T13:40:42.071Z,30.77
2022-09-03T13:43:25.437Z,30.92
2022-09-03T13:46:03.543Z,30.09
2022-09-03T13:48:50.913Z,31.46
2022-09-03T13:51:22.956Z,30.51
2022-09-03T13:53:53.991Z,30.25
2022-09-03T13:56:21.113Z,30.46
2022-09-03T13:58:54.272Z,30.30
2022-09-03T14:01:21.645Z,29.87
2022-09-03T14:03:49.419Z,31.28
2022-09-03T14:06:21.777Z,31.02
2022-09-03T14:09:09.883Z,29.42
2022-09-03T14:11:55.851Z,30.39
2022-09-03T14:14:42.350Z,31.81
2022-09-03T14:17:17.235Z,29.98
2022-09-03T14:19:44.735Z,28.81
2022-09-03T14:22:22.236Z,30.50
2022-09-03T14:24:57.718Z,29.89
2022-09-03T14:27:26.174Z,30.86
2022-09-03T14:29:55.244Z,30.12
2022-09-03T14:32:24.626Z,31.13
2022-09-03T14:35:08.667Z,30.61
2022-09-03T14:37:37.819Z,27.99
2022-09-03T14:40:24.106Z,30.38
2022-09-03T14:43:01.258Z,30.53
2022-09-03T14:45:34.742Z,30.07
2022-09-03T14:48:02.302Z,30.37
2022-09-03T14:50:38.512Z,30.00
2022-09-03T14:53:15.478Z,29.87
2022-09-03T14:55:49.033Z,30.92
2022-09-03T14:58:16.883Z,30.73
2022-09-03T15:00:56.419Z,30.38
2022-09-03T15:03:36.292Z,29.48
2022-09-03T15:06:24.871Z,31.20
2022-09-03T15:09:07.943Z,31.30
2022-09-03T15:11:35.658Z,31.83
2022-09-03T15:14:29.415Z,32.87
2022-09-03T15:17:16.066Z,31.27
2022-09-03T15:19:59.233Z,32.31
2022-09-03T15:22:42.121Z,31.16
2022-09-03T15:25:23.517Z,32.15
2022-09-03T15:28:02.320Z,32.05
2022-09-03T15:31:02.408Z,32.46
2022-09-03T15:33:29.600Z,32.23
2022-09-03T15:36:17.753Z,31.68
2022-09-03T15:38:53.114Z,32.44
2022-09-03T15:41:35.911Z,34.78
2022-09-03T15:44:03.670Z,35.15
2022-09-03T15:46:39.334Z,33.39
2022-09-03T15:49:29.757Z,34.67
2022-09-03T15:51:57.217Z,33.82
2022-09-03T15:54:43.088Z,34.43
2022-09-03T15:57:30.747Z,33.15
2022-09-03T16:00:00.631Z,32.96
2022-09-03T16:02:33.565Z,33.69
2022-09-03T16:05:05.993Z,31.97
2022-09-03T16:07:34.368Z,32.76
2022-09-03T16:10:26.837Z,34.43
2022-09-03T16:13:04.743Z,32.76
2022-09-03T16:15:43.529Z,34.01
2022-09-03T16:18:25.009Z,35.20
2022-09-03T16:20:55.297Z,34.53
2022-09-03T16:23:45.861Z,35.00
2022-09-03T16:26:29.987Z,35.79
2022-09-03T16:29:11.984Z,34.88
2022-09-03T16:31:40.048Z,35.84
2022-09-03T16:34:16.700Z,35.13
2022-09-03T16:37:05.017Z,35.14
2022-09-03T16:39:35.302Z,35.58
2022-09-03T16:42:07.681Z,36.00
2022-09-03T16:44:41.810Z,36.26
2022-09-03T16:47:16.623Z,36.56
2022-09-03T16:49:46.620Z,37.22
2022-09-03T16:52:19.897Z,37.94
2022-09-03T16:54:55.903Z,38.45
2022-09-03T16:57:28.677Z,39.89
2022-09-03T17:00:01.878Z,41.84
2022-09-03T17:02:41.530Z,41.71
2022-09-03T17:05:44.732Z,41.72
2022-09-03T17:08:16.146Z,41.98
2022-09-03T17:10:43.251Z,42.56
2022-09-03T17:13:29.089Z,42.88
2022-09-03T17:16:08.443Z,42.86
2022-09-03T17:18:44.369Z,42.48
2022-09-03T17:21:24.103Z,44.04
2022-09-03T17:23:54.268Z,44.17
2022-09-03T17:26:29.929Z,45.14
2022-09-03T17:29:16.340Z,45.17
2022-09-03T17:31:52.863Z,45.04
2022-09-03T17:34:32.667Z,44.66
2022-09-03T17:37:09.181Z,45.15
2022-09-03T17:39:36.389Z,45.53
2022-09-03T17:42:24.108Z,46.00
2022-09-03T17:45:11.518Z,46.54
2022-09-03T17:48:02.281Z,46.53
2022-09-03T17:50:33.631Z,46.42
2022-09-03T17:53:03.316Z,46.25
2022-09-03T17:55:37.786Z,46.93
2022-09-03T17:58:08.234Z,47.34
2022-09-03T18:00:42.460Z,47.29
2022-09-03T18:03:19.186Z,48.39
2022-09-03T18:05:52.263Z,47.80
2022-09-03T18:08:22.461Z,47.61
2022-09-03T18:10:54.214Z,48.24
2022-09-03T18:13:25.241Z,48.73
2022-09-03T18:16:01.118Z,47.88
2022-09-03T18:18:29.679Z,48.81
2022-09-03T18:21:24.300Z,48.77
2022-09-03T18:24:11.472Z,49.01
2022-09-03T18:27:24.996Z,48.89
2022-09-03T18:30:22.625Z,48.76
2022-09-03T18:33:12.239Z,48.69
2022-09-03T18:35:58.855Z,49.03
2022-09-03T18:38:46.084Z,49.44
2022-09-03T18:41:32.674Z,50.00
2022-09-03T18:44:27.986Z,50.10
2022-09-03T18:50:27.423Z,50.92
2022-09-03T18:53:31.020Z,50.06
2022-09-03T18:56:26.819Z,49.72
2022-09-03T18:59:13.319Z,49.95
2022-09-03T19:02:00.752Z,50.87
2022-09-03T19:04:48.148Z,50.20
2022-09-03T19:07:43.725Z,50.48
2022-09-03T19:10:31.213Z,50.90
2022-09-03T19:13:36.759Z,50.42
2022-09-03T19:16:33.820Z,50.67
2022-09-03T19:19:20.061Z,51.46
2022-09-03T19:22:16.119Z,52.10
2022-09-03T19:25:01.990Z,51.67
2022-09-03T19:28:24.126Z,51.99
2022-09-03T19:31:29.430Z,51.84
2022-09-03T19:34:35.679Z,52.26
2022-09-03T19:37:27.727Z,51.91
2022-09-03T19:40:30.919Z,52.85
2022-09-03T19:43:30.779Z,52.63
2022-09-03T19:46:32.647Z,52.90
2022-09-03T19:49:24.630Z,52.42
2022-09-03T19:52:10.845Z,52.35
2022-09-03T19:54:57.093Z,52.34
2022-09-03T19:57:43.899Z,52.64
2022-09-03T20:00:33.090Z,52.18
2022-09-03T20:03:20.745Z,51.93
2022-09-03T20:06:16.017Z,53.02
2022-09-03T20:09:02.863Z,52.55
2022-09-03T20:11:30.118Z,52.24
2022-09-03T20:14:13.645Z,52.68
2022-09-03T20:16:44.144Z,53.14
2022-09-03T20:19:15.550Z,53.41
2022-09-03T20:21:47.644Z,54.33
2022-09-03T20:24:34.654Z,53.60
2022-09-03T20:27:15.860Z,52.40
2022-09-03T20:30:00.244Z,53.10
2022-09-03T20:32:30.374Z,52.99
2022-09-03T20:35:00.746Z,54.61
2022-09-03T20:37:31.237Z,53.22
2022-09-03T20:40:07.991Z,54.40
2022-09-03T20:42:38.678Z,54.26
2022-09-03T20:45:20.430Z,53.95
2022-09-03T20:48:06.035Z,54.72
2022-09-03T20:50:50.267Z,54.52
2022-09-03T20:53:39.208Z,53.86
2022-09-03T20:56:10.684Z,54.78
2022-09-03T20:58:37.771Z,54.18
2022-09-03T21:01:09.166Z,53.77
2022-09-03T21:03:42.775Z,54.99
2022-09-03T21:06:29.249Z,54.25
2022-09-03T21:09:13.392Z,53.82
2022-09-03T21:11:50.007Z,54.36
2022-09-03T21:14:31.280Z,54.46
2022-09-03T21:17:08.827Z,54.91
2022-09-03T21:19:40.617Z,54.31
2022-09-03T21:22:17.626Z,55.07
2022-09-03T21:24:49.531Z,53.91
2022-09-03T21:27:20.885Z,54.26
2022-09-03T21:29:51.773Z,54.77
2022-09-03T21:32:23.449Z,54.42
2022-09-03T21:34:54.762Z,54.58
2022-09-03T21:37:22.028Z,54.19
2022-09-03T21:39:56.152Z,53.91
2022-09-03T21:42:26.507Z,54.75
2022-09-03T21:44:55.743Z,55.02
2022-09-03T21:47:22.910Z,54.41
2022-09-03T21:49:53.342Z,55.18
2022-09-03T21:52:25.834Z,54.98
2022-09-03T21:54:54.302Z,54.94
2022-09-03T21:57:45.445Z,54.35
2022-09-03T22:00:12.963Z,54.68
2022-09-03T22:02:41.813Z,54.73
2022-09-03T22:05:09.205Z,54.66
2022-09-03T22:07:36.382Z,55.03
2022-09-03T22:10:16.679Z,54.50
2022-09-03T22:12:47.341Z,54.67
2022-09-03T22:15:14.803Z,54.67
2022-09-03T22:17:56.940Z,54.93
2022-09-03T22:20:26.288Z,55.36
2022-09-03T22:22:57.666Z,55.29
2022-09-03T22:25:31.856Z,55.27
2022-09-03T22:28:03.441Z,55.99
2022-09-03T22:30:37.725Z,56.36
2022-09-03T22:33:23.481Z,56.02
2022-09-03T22:35:58.619Z,56.32
2022-09-03T22:38:31.949Z,55.92
2022-09-03T22:41:16.283Z,56.88
2022-09-03T22:43:44.156Z,56.04
2022-09-03T22:46:15.698Z,55.67
2022-09-03T22:49:01.710Z,56.05
2022-09-03T22:51:30.973Z,56.49
2022-09-03T22:53:58.091Z,56.20
2022-09-03T22:56:25.415Z,56.79
2022-09-03T22:58:56.651Z,57.31
2022-09-03T23:01:23.892Z,57.20
2022-09-03T23:03:54.149Z,57.76
2022-09-03T23:06:34.628Z,56.54
2022-09-03T23:09:09.326Z,56.44
2022-09-03T23:11:44.576Z,57.50
2022-09-03T23:14:31.957Z,57.25
2022-09-03T23:17:00.594Z,57.06
2022-09-03T23:19:39.485Z,57.47
2022-09-03T23:22:18.264Z,56.92
2022-09-03T23:24:47.891Z,56.88
2022-09-03T23:27:18.033Z,57.48
2022-09-03T23:29:45.789Z,55.88
2022-09-03T23:32:13.054Z,56.96
2022-09-03T23:34:40.722Z,56.29
2022-09-03T23:37:33.062Z,56.32
2022-09-03T23:40:07.620Z,57.04
2022-09-03T23:42:40.975Z,57.49
2022-09-03T23:45:15.907Z,56.79
2022-09-03T23:48:03.489Z,57.26
2022-09-03T23:50:46.290Z,57.14
2022-09-03T23:53:32.390Z,57.04
2022-09-03T23:56:08.484Z,57.62
2022-09-03T23:58:45.674Z,59.09
